Grovespring, Missouri
Current Conditions -  °F | °C
As of 1:58 PM on Monday 22 Dec 2014 (Local Time) from KTBN Reporting Station
Overcast Overcast  
Wind Chill: 44°   Ceiling: 500
Heat Index: 47°   Visibility: 10mi
Dew Point: 47°   Wind: 7mph
Humidity: 100%   Direction: 170°S
Pressure: 29.5"   Gusts: NA
Location:  37.4°N, 92.61°W
Report Text: KTBN 221958Z AUTO 17006KT 10SM OVC005 08/08 A2950 RMK AO2 RAE1908DZB1908E1931 SLP995 P0001 T00830083
Loading
Personal Weather Stations






























Interactive Weather Map New forecast layout! Learn more

10-Day Weather Forecast

Advertisements
Track Severe Weather on mobile